sensor_id;sensor_type;location;lat;lon;timestamp;P1;durP1;ratioP1;P2;durP2;ratioP2
25637;SDS011;13496;51.040;13.680;2022-08-21T00:01:38;13.20;;;11.90;;
25637;SDS011;13496;51.040;13.680;2022-08-21T00:06:40;13.65;;;12.45;;
25637;SDS011;13496;51.040;13.680;2022-08-21T00:11:42;13.90;;;12.52;;
25637;SDS011;13496;51.040;13.680;2022-08-21T00:16:44;13.07;;;11.70;;
25637;SDS011;13496;51.040;13.680;2022-08-21T00:21:46;14.90;;;13.38;;
25637;SDS011;13496;51.040;13.680;2022-08-21T00:26:47;14.20;;;12.90;;
25637;SDS011;13496;51.040;13.680;2022-08-21T00:31:50;15.30;;;13.07;;
25637;SDS011;13496;51.040;13.680;2022-08-21T00:36:51;14.13;;;12.82;;
25637;SDS011;13496;51.040;13.680;2022-08-21T00:41:53;14.15;;;12.77;;
25637;SDS011;13496;51.040;13.680;2022-08-21T00:46:55;15.68;;;14.00;;
25637;SDS011;13496;51.040;13.680;2022-08-21T00:51:57;16.33;;;14.65;;
25637;SDS011;13496;51.040;13.680;2022-08-21T00:57:07;15.30;;;13.80;;
25637;SDS011;13496;51.040;13.680;2022-08-21T01:02:16;15.82;;;14.32;;
25637;SDS011;13496;51.040;13.680;2022-08-21T01:07:17;16.15;;;14.68;;
25637;SDS011;13496;51.040;13.680;2022-08-21T01:12:21;15.75;;;14.25;;
25637;SDS011;13496;51.040;13.680;2022-08-21T01:17:23;15.88;;;14.48;;
25637;SDS011;13496;51.040;13.680;2022-08-21T01:22:25;17.00;;;15.20;;
25637;SDS011;13496;51.040;13.680;2022-08-21T01:27:27;15.77;;;14.27;;
25637;SDS011;13496;51.040;13.680;2022-08-21T01:32:29;14.00;;;12.70;;
25637;SDS011;13496;51.040;13.680;2022-08-21T01:37:31;10.75;;;9.85;;
25637;SDS011;13496;51.040;13.680;2022-08-21T01:42:33;10.30;;;9.30;;
25637;SDS011;13496;51.040;13.680;2022-08-21T01:47:35;7.90;;;7.20;;
25637;SDS011;13496;51.040;13.680;2022-08-21T01:52:37;6.40;;;5.90;;
25637;SDS011;13496;51.040;13.680;2022-08-21T01:57:38;6.40;;;5.88;;
25637;SDS011;13496;51.040;13.680;2022-08-21T02:02:41;5.45;;;4.95;;
25637;SDS011;13496;51.040;13.680;2022-08-21T02:07:44;5.05;;;4.65;;
25637;SDS011;13496;51.040;13.680;2022-08-21T02:12:48;5.30;;;4.80;;
25637;SDS011;13496;51.040;13.680;2022-08-21T02:17:52;4.07;;;3.75;;
25637;SDS011;13496;51.040;13.680;2022-08-21T02:22:58;4.20;;;3.90;;
25637;SDS011;13496;51.040;13.680;2022-08-21T02:28:02;4.75;;;4.32;;
25637;SDS011;13496;51.040;13.680;2022-08-21T02:33:07;4.78;;;4.38;;
25637;SDS011;13496;51.040;13.680;2022-08-21T02:38:12;5.25;;;4.75;;
25637;SDS011;13496;51.040;13.680;2022-08-21T02:43:16;5.40;;;5.00;;
25637;SDS011;13496;51.040;13.680;2022-08-21T02:48:20;5.82;;;5.20;;
25637;SDS011;13496;51.040;13.680;2022-08-21T02:53:24;5.60;;;5.10;;
25637;SDS011;13496;51.040;13.680;2022-08-21T02:58:29;4.95;;;4.57;;
25637;SDS011;13496;51.040;13.680;2022-08-21T03:03:33;5.10;;;4.70;;
25637;SDS011;13496;51.040;13.680;2022-08-21T03:08:36;5.68;;;5.28;;
25637;SDS011;13496;51.040;13.680;2022-08-21T03:13:39;5.80;;;5.30;;
25637;SDS011;13496;51.040;13.680;2022-08-21T03:18:41;5.22;;;4.82;;
25637;SDS011;13496;51.040;13.680;2022-08-21T03:23:42;5.28;;;4.88;;
25637;SDS011;13496;51.040;13.680;2022-08-21T03:28:44;5.47;;;4.97;;
25637;SDS011;13496;51.040;13.680;2022-08-21T03:33:46;4.90;;;4.50;;
25637;SDS011;13496;51.040;13.680;2022-08-21T03:38:48;5.28;;;4.88;;
25637;SDS011;13496;51.040;13.680;2022-08-21T03:43:50;5.28;;;4.88;;
25637;SDS011;13496;51.040;13.680;2022-08-21T03:48:52;6.30;;;5.70;;
25637;SDS011;13496;51.040;13.680;2022-08-21T03:53:53;6.90;;;6.10;;
25637;SDS011;13496;51.040;13.680;2022-08-21T03:58:55;7.40;;;5.65;;
25637;SDS011;13496;51.040;13.680;2022-08-21T04:03:57;6.50;;;5.90;;
25637;SDS011;13496;51.040;13.680;2022-08-21T04:08:59;6.38;;;5.75;;
25637;SDS011;13496;51.040;13.680;2022-08-21T04:14:01;7.25;;;6.32;;
25637;SDS011;13496;51.040;13.680;2022-08-21T04:19:02;7.15;;;6.53;;
25637;SDS011;13496;51.040;13.680;2022-08-21T04:24:05;6.25;;;5.75;;
25637;SDS011;13496;51.040;13.680;2022-08-21T04:29:08;6.78;;;6.13;;
25637;SDS011;13496;51.040;13.680;2022-08-21T04:34:10;8.75;;;5.78;;
25637;SDS011;13496;51.040;13.680;2022-08-21T04:39:11;7.35;;;6.65;;
25637;SDS011;13496;51.040;13.680;2022-08-21T04:44:13;7.82;;;7.13;;
25637;SDS011;13496;51.040;13.680;2022-08-21T04:49:15;7.35;;;6.65;;
25637;SDS011;13496;51.040;13.680;2022-08-21T04:54:18;7.32;;;6.72;;
25637;SDS011;13496;51.040;13.680;2022-08-21T04:59:27;7.65;;;6.85;;
25637;SDS011;13496;51.040;13.680;2022-08-21T05:04:34;7.13;;;6.53;;
25637;SDS011;13496;51.040;13.680;2022-08-21T05:09:40;8.10;;;7.32;;
25637;SDS011;13496;51.040;13.680;2022-08-21T05:14:42;9.82;;;7.72;;
25637;SDS011;13496;51.040;13.680;2022-08-21T05:19:44;9.63;;;8.52;;
25637;SDS011;13496;51.040;13.680;2022-08-21T05:24:46;9.52;;;8.60;;
25637;SDS011;13496;51.040;13.680;2022-08-21T05:29:48;9.35;;;8.43;;
25637;SDS011;13496;51.040;13.680;2022-08-21T05:34:49;8.80;;;8.00;;
25637;SDS011;13496;51.040;13.680;2022-08-21T05:39:51;8.75;;;8.05;;
25637;SDS011;13496;51.040;13.680;2022-08-21T05:44:53;8.70;;;8.00;;
25637;SDS011;13496;51.040;13.680;2022-08-21T05:49:55;9.43;;;8.48;;
25637;SDS011;13496;51.040;13.680;2022-08-21T05:54:57;8.93;;;8.05;;
25637;SDS011;13496;51.040;13.680;2022-08-21T05:59:58;8.77;;;7.97;;
25637;SDS011;13496;51.040;13.680;2022-08-21T06:05:00;8.98;;;8.27;;
25637;SDS011;13496;51.040;13.680;2022-08-21T06:10:02;9.90;;;8.45;;
25637;SDS011;13496;51.040;13.680;2022-08-21T06:15:04;9.50;;;8.60;;
25637;SDS011;13496;51.040;13.680;2022-08-21T06:20:06;10.35;;;8.30;;
25637;SDS011;13496;51.040;13.680;2022-08-21T06:25:09;9.02;;;8.02;;
25637;SDS011;13496;51.040;13.680;2022-08-21T06:30:11;10.82;;;8.93;;
25637;SDS011;13496;51.040;13.680;2022-08-21T06:35:13;9.70;;;8.80;;
25637;SDS011;13496;51.040;13.680;2022-08-21T06:40:15;9.77;;;8.63;;
25637;SDS011;13496;51.040;13.680;2022-08-21T06:45:17;10.52;;;7.90;;
25637;SDS011;13496;51.040;13.680;2022-08-21T06:50:19;9.65;;;8.35;;
25637;SDS011;13496;51.040;13.680;2022-08-21T06:55:20;9.55;;;8.65;;
25637;SDS011;13496;51.040;13.680;2022-08-21T07:00:22;9.27;;;8.40;;
25637;SDS011;13496;51.040;13.680;2022-08-21T07:05:25;8.85;;;8.05;;
25637;SDS011;13496;51.040;13.680;2022-08-21T07:10:28;9.60;;;7.70;;
25637;SDS011;13496;51.040;13.680;2022-08-21T07:15:30;10.25;;;9.35;;
25637;SDS011;13496;51.040;13.680;2022-08-21T07:20:32;9.95;;;9.05;;
25637;SDS011;13496;51.040;13.680;2022-08-21T07:25:34;11.77;;;9.50;;
25637;SDS011;13496;51.040;13.680;2022-08-21T07:30:36;11.40;;;8.88;;
25637;SDS011;13496;51.040;13.680;2022-08-21T07:35:38;10.77;;;9.70;;
25637;SDS011;13496;51.040;13.680;2022-08-21T07:40:40;10.05;;;9.15;;
25637;SDS011;13496;51.040;13.680;2022-08-21T07:45:42;10.52;;;9.63;;
25637;SDS011;13496;51.040;13.680;2022-08-21T07:50:44;10.45;;;9.55;;
25637;SDS011;13496;51.040;13.680;2022-08-21T07:55:46;9.98;;;9.07;;
25637;SDS011;13496;51.040;13.680;2022-08-21T08:00:47;9.60;;;8.70;;
25637;SDS011;13496;51.040;13.680;2022-08-21T08:05:49;8.68;;;7.88;;
25637;SDS011;13496;51.040;13.680;2022-08-21T08:10:53;9.75;;;8.90;;
25637;SDS011;13496;51.040;13.680;2022-08-21T08:15:57;8.18;;;7.50;;
25637;SDS011;13496;51.040;13.680;2022-08-21T08:20:59;9.57;;;8.07;;
25637;SDS011;13496;51.040;13.680;2022-08-21T08:26:00;8.25;;;7.65;;
25637;SDS011;13496;51.040;13.680;2022-08-21T08:31:04;9.30;;;7.55;;
25637;SDS011;13496;51.040;13.680;2022-08-21T08:36:08;8.52;;;7.60;;
25637;SDS011;13496;51.040;13.680;2022-08-21T08:41:16;7.72;;;6.93;;
25637;SDS011;13496;51.040;13.680;2022-08-21T08:46:31;7.15;;;6.50;;
25637;SDS011;13496;51.040;13.680;2022-08-21T08:51:42;7.20;;;6.60;;
25637;SDS011;13496;51.040;13.680;2022-08-21T08:56:49;7.30;;;6.70;;
25637;SDS011;13496;51.040;13.680;2022-08-21T09:01:53;8.68;;;6.38;;
25637;SDS011;13496;51.040;13.680;2022-08-21T09:06:58;6.65;;;5.95;;
25637;SDS011;13496;51.040;13.680;2022-08-21T09:12:18;6.00;;;5.40;;
25637;SDS011;13496;51.040;13.680;2022-08-21T09:28:21;8.50;;;6.53;;
25637;SDS011;13496;51.040;13.680;2022-08-21T09:33:23;7.32;;;5.72;;
25637;SDS011;13496;51.040;13.680;2022-08-21T09:38:32;6.47;;;5.10;;
25637;SDS011;13496;51.040;13.680;2022-08-21T09:43:36;5.38;;;4.60;;
25637;SDS011;13496;51.040;13.680;2022-08-21T09:48:40;8.02;;;4.80;;
25637;SDS011;13496;51.040;13.680;2022-08-21T09:54:24;5.10;;;4.35;;
25637;SDS011;13496;51.040;13.680;2022-08-21T10:04:34;8.27;;;4.60;;
25637;SDS011;13496;51.040;13.680;2022-08-21T10:09:37;6.85;;;3.90;;
25637;SDS011;13496;51.040;13.680;2022-08-21T10:20:05;4.88;;;3.78;;
25637;SDS011;13496;51.040;13.680;2022-08-21T10:25:18;6.55;;;4.07;;
25637;SDS011;13496;51.040;13.680;2022-08-21T10:35:57;5.72;;;3.83;;
25637;SDS011;13496;51.040;13.680;2022-08-21T10:41:13;7.07;;;4.00;;
25637;SDS011;13496;51.040;13.680;2022-08-21T10:57:16;5.95;;;3.30;;
25637;SDS011;13496;51.040;13.680;2022-08-21T11:02:41;8.98;;;3.40;;
25637;SDS011;13496;51.040;13.680;2022-08-21T11:07:55;4.70;;;3.70;;
25637;SDS011;13496;51.040;13.680;2022-08-21T11:13:08;4.68;;;3.45;;
25637;SDS011;13496;51.040;13.680;2022-08-21T11:18:21;4.47;;;3.33;;
25637;SDS011;13496;51.040;13.680;2022-08-21T11:28:51;6.57;;;3.13;;
25637;SDS011;13496;51.040;13.680;2022-08-21T11:44:18;8.02;;;3.97;;
25637;SDS011;13496;51.040;13.680;2022-08-21T11:54:58;5.78;;;3.80;;
25637;SDS011;13496;51.040;13.680;2022-08-21T12:16:29;5.65;;;2.60;;
25637;SDS011;13496;51.040;13.680;2022-08-21T12:21:31;5.63;;;2.53;;
25637;SDS011;13496;51.040;13.680;2022-08-21T12:26:35;4.63;;;2.20;;
25637;SDS011;13496;51.040;13.680;2022-08-21T12:31:53;6.55;;;2.97;;
25637;SDS011;13496;51.040;13.680;2022-08-21T12:37:21;4.93;;;2.80;;
25637;SDS011;13496;51.040;13.680;2022-08-21T12:42:34;4.68;;;3.00;;
25637;SDS011;13496;51.040;13.680;2022-08-21T12:47:51;4.18;;;2.72;;
25637;SDS011;13496;51.040;13.680;2022-08-21T12:53:10;5.57;;;2.63;;
25637;SDS011;13496;51.040;13.680;2022-08-21T12:58:25;6.07;;;2.75;;
25637;SDS011;13496;51.040;13.680;2022-08-21T13:03:27;5.05;;;2.30;;
25637;SDS011;13496;51.040;13.680;2022-08-21T13:08:29;5.32;;;2.58;;
25637;SDS011;13496;51.040;13.680;2022-08-21T13:13:31;7.35;;;2.85;;
25637;SDS011;13496;51.040;13.680;2022-08-21T13:18:35;6.00;;;2.72;;
25637;SDS011;13496;51.040;13.680;2022-08-21T13:23:52;3.50;;;2.30;;
25637;SDS011;13496;51.040;13.680;2022-08-21T13:28:54;5.28;;;2.90;;
25637;SDS011;13496;51.040;13.680;2022-08-21T13:34:16;5.82;;;2.70;;
25637;SDS011;13496;51.040;13.680;2022-08-21T13:39:19;4.80;;;2.40;;
25637;SDS011;13496;51.040;13.680;2022-08-21T13:44:34;4.15;;;2.35;;
25637;SDS011;13496;51.040;13.680;2022-08-21T13:49:38;5.05;;;2.30;;
25637;SDS011;13496;51.040;13.680;2022-08-21T13:54:42;10.73;;;2.58;;
25637;SDS011;13496;51.040;13.680;2022-08-21T13:59:46;6.38;;;2.80;;
25637;SDS011;13496;51.040;13.680;2022-08-21T14:04:55;5.50;;;2.50;;
25637;SDS011;13496;51.040;13.680;2022-08-21T14:15:13;5.80;;;2.58;;
25637;SDS011;13496;51.040;13.680;2022-08-21T14:20:31;8.23;;;2.95;;
25637;SDS011;13496;51.040;13.680;2022-08-21T14:30:44;6.80;;;2.90;;
25637;SDS011;13496;51.040;13.680;2022-08-21T14:35:46;5.90;;;2.95;;
25637;SDS011;13496;51.040;13.680;2022-08-21T14:40:49;5.38;;;2.30;;
25637;SDS011;13496;51.040;13.680;2022-08-21T14:45:53;3.67;;;2.10;;
25637;SDS011;13496;51.040;13.680;2022-08-21T14:50:55;22.75;;;3.72;;
25637;SDS011;13496;51.040;13.680;2022-08-21T14:55:57;3.85;;;2.10;;
25637;SDS011;13496;51.040;13.680;2022-08-21T15:01:08;9.48;;;4.13;;
25637;SDS011;13496;51.040;13.680;2022-08-21T15:06:11;14.07;;;6.25;;
25637;SDS011;13496;51.040;13.680;2022-08-21T15:11:16;8.68;;;4.97;;
25637;SDS011;13496;51.040;13.680;2022-08-21T15:16:19;7.55;;;3.20;;
25637;SDS011;13496;51.040;13.680;2022-08-21T15:21:21;15.95;;;4.45;;
25637;SDS011;13496;51.040;13.680;2022-08-21T15:26:23;6.75;;;2.80;;
25637;SDS011;13496;51.040;13.680;2022-08-21T15:31:25;27.17;;;4.60;;
25637;SDS011;13496;51.040;13.680;2022-08-21T15:36:26;6.60;;;3.20;;
25637;SDS011;13496;51.040;13.680;2022-08-21T15:41:28;5.20;;;2.38;;
25637;SDS011;13496;51.040;13.680;2022-08-21T15:46:30;5.75;;;2.72;;
25637;SDS011;13496;51.040;13.680;2022-08-21T15:51:32;8.18;;;2.22;;
25637;SDS011;13496;51.040;13.680;2022-08-21T15:56:36;4.00;;;2.25;;
25637;SDS011;13496;51.040;13.680;2022-08-21T16:01:39;117.10;;;17.58;;
25637;SDS011;13496;51.040;13.680;2022-08-21T16:06:41;17.58;;;3.95;;
25637;SDS011;13496;51.040;13.680;2022-08-21T16:11:43;10.35;;;5.65;;
25637;SDS011;13496;51.040;13.680;2022-08-21T16:16:45;11.23;;;6.85;;
25637;SDS011;13496;51.040;13.680;2022-08-21T16:21:47;7.70;;;6.13;;
25637;SDS011;13496;51.040;13.680;2022-08-21T16:26:49;7.63;;;4.80;;
25637;SDS011;13496;51.040;13.680;2022-08-21T16:31:50;5.85;;;4.63;;
25637;SDS011;13496;51.040;13.680;2022-08-21T16:36:53;5.00;;;3.80;;
25637;SDS011;13496;51.040;13.680;2022-08-21T16:41:55;6.20;;;3.10;;
25637;SDS011;13496;51.040;13.680;2022-08-21T16:46:57;6.72;;;2.90;;
25637;SDS011;13496;51.040;13.680;2022-08-21T16:51:58;6.80;;;2.78;;
25637;SDS011;13496;51.040;13.680;2022-08-21T16:57:00;5.65;;;2.88;;
25637;SDS011;13496;51.040;13.680;2022-08-21T17:02:02;4.40;;;2.60;;
25637;SDS011;13496;51.040;13.680;2022-08-21T17:07:04;3.53;;;2.53;;
25637;SDS011;13496;51.040;13.680;2022-08-21T17:12:05;3.65;;;2.28;;
25637;SDS011;13496;51.040;13.680;2022-08-21T17:17:08;3.67;;;2.60;;
25637;SDS011;13496;51.040;13.680;2022-08-21T17:22:11;4.93;;;2.42;;
25637;SDS011;13496;51.040;13.680;2022-08-21T17:27:12;3.85;;;2.67;;
25637;SDS011;13496;51.040;13.680;2022-08-21T17:32:14;22.63;;;4.60;;
25637;SDS011;13496;51.040;13.680;2022-08-21T17:37:18;27.95;;;5.95;;
25637;SDS011;13496;51.040;13.680;2022-08-21T17:42:21;8.48;;;2.83;;
25637;SDS011;13496;51.040;13.680;2022-08-21T17:47:24;13.13;;;3.38;;
25637;SDS011;13496;51.040;13.680;2022-08-21T17:52:26;5.25;;;2.97;;
25637;SDS011;13496;51.040;13.680;2022-08-21T17:57:28;8.05;;;3.03;;
25637;SDS011;13496;51.040;13.680;2022-08-21T18:02:33;8.68;;;3.08;;
25637;SDS011;13496;51.040;13.680;2022-08-21T18:07:35;5.72;;;2.88;;
25637;SDS011;13496;51.040;13.680;2022-08-21T18:12:37;7.88;;;3.42;;
25637;SDS011;13496;51.040;13.680;2022-08-21T18:17:41;4.95;;;2.95;;
25637;SDS011;13496;51.040;13.680;2022-08-21T18:22:45;5.20;;;2.90;;
25637;SDS011;13496;51.040;13.680;2022-08-21T18:27:47;4.75;;;3.03;;
25637;SDS011;13496;51.040;13.680;2022-08-21T18:32:49;3.90;;;2.60;;
25637;SDS011;13496;51.040;13.680;2022-08-21T18:37:54;6.97;;;2.88;;
25637;SDS011;13496;51.040;13.680;2022-08-21T18:42:55;6.35;;;2.80;;
25637;SDS011;13496;51.040;13.680;2022-08-21T18:47:57;4.18;;;2.60;;
25637;SDS011;13496;51.040;13.680;2022-08-21T18:52:59;6.70;;;2.45;;
25637;SDS011;13496;51.040;13.680;2022-08-21T18:58:01;8.23;;;3.58;;
25637;SDS011;13496;51.040;13.680;2022-08-21T19:03:03;6.68;;;3.38;;
25637;SDS011;13496;51.040;13.680;2022-08-21T19:08:05;3.38;;;2.65;;
25637;SDS011;13496;51.040;13.680;2022-08-21T19:13:07;4.85;;;2.88;;
25637;SDS011;13496;51.040;13.680;2022-08-21T19:18:12;4.25;;;2.40;;
25637;SDS011;13496;51.040;13.680;2022-08-21T19:23:16;3.67;;;2.58;;
25637;SDS011;13496;51.040;13.680;2022-08-21T19:28:22;4.05;;;2.40;;
25637;SDS011;13496;51.040;13.680;2022-08-21T19:33:34;3.40;;;2.67;;
25637;SDS011;13496;51.040;13.680;2022-08-21T19:38:40;3.58;;;2.67;;
25637;SDS011;13496;51.040;13.680;2022-08-21T19:43:45;2.72;;;2.15;;
25637;SDS011;13496;51.040;13.680;2022-08-21T19:48:51;2.53;;;2.33;;
25637;SDS011;13496;51.040;13.680;2022-08-21T19:53:54;4.32;;;2.80;;
25637;SDS011;13496;51.040;13.680;2022-08-21T19:58:57;4.82;;;2.90;;
25637;SDS011;13496;51.040;13.680;2022-08-21T20:03:59;3.22;;;2.70;;
25637;SDS011;13496;51.040;13.680;2022-08-21T20:09:01;5.25;;;3.00;;
25637;SDS011;13496;51.040;13.680;2022-08-21T20:14:03;6.85;;;3.17;;
25637;SDS011;13496;51.040;13.680;2022-08-21T20:19:07;4.07;;;2.90;;
25637;SDS011;13496;51.040;13.680;2022-08-21T20:24:09;4.90;;;2.90;;
25637;SDS011;13496;51.040;13.680;2022-08-21T20:29:16;4.53;;;3.00;;
25637;SDS011;13496;51.040;13.680;2022-08-21T20:34:19;5.80;;;3.08;;
25637;SDS011;13496;51.040;13.680;2022-08-21T20:39:20;3.70;;;2.88;;
25637;SDS011;13496;51.040;13.680;2022-08-21T20:44:22;3.17;;;2.83;;
25637;SDS011;13496;51.040;13.680;2022-08-21T20:49:33;5.40;;;2.90;;
25637;SDS011;13496;51.040;13.680;2022-08-21T20:54:44;5.38;;;2.90;;
25637;SDS011;13496;51.040;13.680;2022-08-21T21:05:00;3.35;;;3.00;;
25637;SDS011;13496;51.040;13.680;2022-08-21T21:10:04;4.10;;;2.80;;
25637;SDS011;13496;51.040;13.680;2022-08-21T21:15:14;5.88;;;2.97;;
25637;SDS011;13496;51.040;13.680;2022-08-21T21:20:28;3.75;;;3.13;;
25637;SDS011;13496;51.040;13.680;2022-08-21T21:25:56;4.00;;;2.97;;
25637;SDS011;13496;51.040;13.680;2022-08-21T21:31:02;3.38;;;3.00;;
25637;SDS011;13496;51.040;13.680;2022-08-21T21:41:36;5.85;;;2.88;;
25637;SDS011;13496;51.040;13.680;2022-08-21T21:57:57;5.30;;;2.90;;
25637;SDS011;13496;51.040;13.680;2022-08-21T22:08:49;5.15;;;3.30;;
25637;SDS011;13496;51.040;13.680;2022-08-21T22:14:15;6.80;;;3.00;;
25637;SDS011;13496;51.040;13.680;2022-08-21T22:19:22;4.80;;;3.17;;
25637;SDS011;13496;51.040;13.680;2022-08-21T22:24:27;5.00;;;2.72;;
25637;SDS011;13496;51.040;13.680;2022-08-21T22:29:41;4.30;;;2.90;;
25637;SDS011;13496;51.040;13.680;2022-08-21T22:40:02;3.55;;;2.60;;
25637;SDS011;13496;51.040;13.680;2022-08-21T22:45:07;4.85;;;2.65;;
25637;SDS011;13496;51.040;13.680;2022-08-21T22:50:18;4.57;;;2.80;;
25637;SDS011;13496;51.040;13.680;2022-08-21T22:55:33;4.93;;;2.80;;
25637;SDS011;13496;51.040;13.680;2022-08-21T23:01:04;3.08;;;2.60;;
25637;SDS011;13496;51.040;13.680;2022-08-21T23:06:24;2.70;;;2.50;;
25637;SDS011;13496;51.040;13.680;2022-08-21T23:11:36;3.53;;;2.50;;
25637;SDS011;13496;51.040;13.680;2022-08-21T23:16:50;2.75;;;2.50;;
25637;SDS011;13496;51.040;13.680;2022-08-21T23:22:22;4.32;;;3.00;;
25637;SDS011;13496;51.040;13.680;2022-08-21T23:27:50;3.65;;;2.50;;
25637;SDS011;13496;51.040;13.680;2022-08-21T23:49:07;5.68;;;3.00;;
25637;SDS011;13496;51.040;13.680;2022-08-21T23:54:33;3.05;;;2.72;;
